createdAt,value
2017-10-25T00:00:29.383Z,21.00
2017-10-25T00:02:55.611Z,21.93
2017-10-25T00:05:21.855Z,20.40
2017-10-25T00:07:48.062Z,19.50
2017-10-25T00:10:14.236Z,21.90
2017-10-25T00:12:40.489Z,18.97
2017-10-25T00:15:07.102Z,20.33
2017-10-25T00:17:33.634Z,19.80
2017-10-25T00:19:59.816Z,20.30
2017-10-25T00:22:26.008Z,21.70
2017-10-25T00:24:53.026Z,20.80
2017-10-25T00:27:19.223Z,19.77
2017-10-25T00:29:45.442Z,20.47
2017-10-25T00:32:11.631Z,20.37
2017-10-25T00:34:38.736Z,20.33
2017-10-25T00:37:05.646Z,22.63
2017-10-25T00:39:32.195Z,20.63
2017-10-25T00:41:59.051Z,21.00
2017-10-25T00:44:25.226Z,21.23
2017-10-25T00:46:51.471Z,21.77
2017-10-25T00:49:17.754Z,20.47
2017-10-25T00:51:43.919Z,20.93
2017-10-25T00:54:10.504Z,20.40
2017-10-25T00:56:37.182Z,19.53
2017-10-25T00:59:03.400Z,20.30
2017-10-25T01:01:30.391Z,20.17
2017-10-25T01:03:56.619Z,20.43
2017-10-25T01:06:23.177Z,19.73
2017-10-25T01:08:49.438Z,19.47
2017-10-25T01:11:15.671Z,19.67
2017-10-25T01:13:42.182Z,19.53
2017-10-25T01:16:08.362Z,19.70
2017-10-25T01:18:34.584Z,19.07
2017-10-25T01:21:00.811Z,22.27
2017-10-25T01:23:27.396Z,18.70
2017-10-25T01:25:53.645Z,18.90
2017-10-25T01:28:19.874Z,21.33
2017-10-25T01:30:46.135Z,21.83
2017-10-25T01:33:13.214Z,19.40
2017-10-25T01:35:39.472Z,18.67
2017-10-25T01:38:05.672Z,21.00
2017-10-25T01:40:31.875Z,20.07
2017-10-25T01:42:58.096Z,19.40
2017-10-25T01:45:24.703Z,19.90
2017-10-25T01:47:51.020Z,18.13
2017-10-25T01:50:17.619Z,19.20
2017-10-25T01:52:43.804Z,17.93
2017-10-25T01:55:10.012Z,18.10
2017-10-25T01:57:36.245Z,18.17
2017-10-25T02:00:02.533Z,18.40
2017-10-25T02:02:28.770Z,20.00
2017-10-25T02:04:55.052Z,19.67
2017-10-25T02:07:22.772Z,18.53
2017-10-25T02:09:49.003Z,18.03
2017-10-25T02:12:16.936Z,17.20
2017-10-25T02:14:43.955Z,17.60
2017-10-25T02:17:10.170Z,16.17
2017-10-25T02:19:37.144Z,15.23
2017-10-25T02:22:03.757Z,16.47
2017-10-25T02:24:29.956Z,15.10
2017-10-25T02:26:56.170Z,15.63
2017-10-25T02:29:22.760Z,15.50
2017-10-25T02:31:49.281Z,16.80
2017-10-25T02:34:15.463Z,16.13
2017-10-25T02:36:41.663Z,16.53
2017-10-25T02:39:07.828Z,15.63
2017-10-25T02:41:34.423Z,15.40
2017-10-25T02:44:01.015Z,14.13
2017-10-25T02:46:27.748Z,14.73
2017-10-25T02:48:53.973Z,14.07
2017-10-25T02:51:20.133Z,15.50
2017-10-25T02:53:46.506Z,15.50
2017-10-25T02:56:12.705Z,14.60
2017-10-25T02:58:39.098Z,15.03
2017-10-25T03:01:05.316Z,14.50
2017-10-25T03:03:31.475Z,16.00
2017-10-25T03:05:57.708Z,17.47
2017-10-25T03:08:24.471Z,15.00
2017-10-25T03:10:51.439Z,16.30
2017-10-25T03:13:18.130Z,16.20
2017-10-25T03:15:44.383Z,16.50
2017-10-25T03:18:10.624Z,15.43
2017-10-25T03:20:36.859Z,15.30
2017-10-25T03:23:03.092Z,14.43
2017-10-25T03:25:29.280Z,15.10
2017-10-25T03:27:55.474Z,15.50
2017-10-25T03:30:22.057Z,16.20
2017-10-25T03:32:48.983Z,15.20
2017-10-25T03:35:15.210Z,15.03
2017-10-25T03:37:41.462Z,17.10
2017-10-25T03:40:08.026Z,15.97
2017-10-25T03:42:34.206Z,16.47
2017-10-25T03:45:00.448Z,15.70
2017-10-25T03:47:26.638Z,16.30
2017-10-25T03:49:52.929Z,16.07
2017-10-25T03:52:19.143Z,15.70
2017-10-25T03:54:45.701Z,15.83
2017-10-25T03:57:12.252Z,16.47
2017-10-25T03:59:38.395Z,16.00
2017-10-25T04:02:05.313Z,17.00
2017-10-25T04:04:31.530Z,15.80
2017-10-25T04:06:58.578Z,16.47
2017-10-25T04:09:24.743Z,15.50
2017-10-25T04:11:50.961Z,14.60
2017-10-25T04:14:17.198Z,15.00
2017-10-25T04:16:43.403Z,14.60
2017-10-25T04:19:10.437Z,15.03
2017-10-25T04:21:36.637Z,16.70
2017-10-25T04:24:02.880Z,16.87
2017-10-25T04:26:29.904Z,14.93
2017-10-25T04:28:56.851Z,15.13
2017-10-25T04:31:23.191Z,16.07
2017-10-25T04:33:49.437Z,14.97
2017-10-25T04:36:15.620Z,14.00
2017-10-25T04:38:41.827Z,13.80
2017-10-25T04:41:08.083Z,13.87
2017-10-25T04:43:34.302Z,16.57
2017-10-25T04:46:00.495Z,14.63
2017-10-25T04:48:26.664Z,15.27
2017-10-25T04:50:53.619Z,15.17
2017-10-25T04:53:19.798Z,15.03
2017-10-25T04:55:46.038Z,15.50
2017-10-25T04:58:12.343Z,15.43
2017-10-25T05:00:38.572Z,15.80
2017-10-25T05:03:04.851Z,14.80
2017-10-25T05:05:31.067Z,16.47
2017-10-25T05:07:57.289Z,15.60
2017-10-25T05:10:24.235Z,13.83
2017-10-25T05:12:50.461Z,15.60
2017-10-25T05:15:16.642Z,14.00
2017-10-25T05:17:42.929Z,16.20
2017-10-25T05:20:10.149Z,13.13
2017-10-25T05:22:36.351Z,14.43
2017-10-25T05:25:02.516Z,15.70
2017-10-25T05:27:29.523Z,16.90
2017-10-25T05:29:55.742Z,16.10
2017-10-25T05:32:21.988Z,15.57
2017-10-25T05:34:48.207Z,16.00
2017-10-25T05:37:14.380Z,16.70
2017-10-25T05:39:40.619Z,15.30
2017-10-25T05:42:07.616Z,17.60
2017-10-25T05:44:33.834Z,15.53
2017-10-25T05:47:00.225Z,15.70
2017-10-25T05:49:26.445Z,15.77
2017-10-25T05:51:52.622Z,15.83
2017-10-25T05:54:18.882Z,16.73
2017-10-25T05:56:45.104Z,15.03
2017-10-25T05:59:11.317Z,13.80
2017-10-25T06:01:37.879Z,15.37
2017-10-25T06:04:04.161Z,16.07
2017-10-25T06:06:30.371Z,14.80
2017-10-25T06:08:56.553Z,16.83
2017-10-25T06:11:23.152Z,16.47
2017-10-25T06:13:50.054Z,15.47
2017-10-25T06:16:16.615Z,16.03
2017-10-25T06:18:42.832Z,13.80
2017-10-25T06:21:09.386Z,17.03
2017-10-25T06:23:35.560Z,16.73
2017-10-25T06:26:01.769Z,17.27
2017-10-25T06:28:27.952Z,17.27
2017-10-25T06:30:54.774Z,15.97
2017-10-25T06:33:21.366Z,15.47
2017-10-25T06:35:47.603Z,16.27
2017-10-25T06:38:13.875Z,14.80
2017-10-25T06:40:40.084Z,16.37
2017-10-25T06:43:06.286Z,15.63
2017-10-25T06:45:32.588Z,17.63
2017-10-25T06:47:58.784Z,17.80
2017-10-25T06:50:24.991Z,15.90
2017-10-25T06:52:51.216Z,15.87
2017-10-25T06:55:18.181Z,17.43
2017-10-25T06:57:44.380Z,15.67
2017-10-25T07:00:10.567Z,17.77
2017-10-25T07:02:36.790Z,16.60
2017-10-25T07:05:02.952Z,17.90
2017-10-25T07:07:29.163Z,16.43
2017-10-25T07:09:55.346Z,16.93
2017-10-25T07:12:22.260Z,17.00
2017-10-25T07:14:48.469Z,17.77
2017-10-25T07:17:14.636Z,16.20
2017-10-25T07:19:40.833Z,14.40
2017-10-25T07:22:06.980Z,16.17
2017-10-25T07:24:33.191Z,16.80
2017-10-25T07:26:59.372Z,16.50
2017-10-25T07:29:25.589Z,16.37
2017-10-25T07:31:52.521Z,15.60
2017-10-25T07:34:18.891Z,16.93
2017-10-25T07:36:45.149Z,17.47
2017-10-25T07:39:11.330Z,16.43
2017-10-25T07:41:37.601Z,14.97
2017-10-25T07:44:05.672Z,14.47
2017-10-25T07:46:31.846Z,15.57
2017-10-25T07:48:58.077Z,15.70
2017-10-25T07:51:24.641Z,15.07
2017-10-25T07:53:50.822Z,14.20
2017-10-25T07:56:17.018Z,15.33
2017-10-25T07:58:43.175Z,13.40
2017-10-25T08:01:09.348Z,13.67
2017-10-25T08:03:35.501Z,14.73
2017-10-25T08:06:01.731Z,13.07
2017-10-25T08:08:28.321Z,14.17
2017-10-25T08:10:54.494Z,14.13
2017-10-25T08:13:20.679Z,14.23
2017-10-25T08:15:46.886Z,13.73
2017-10-25T08:18:13.836Z,13.93
2017-10-25T08:20:40.014Z,16.20
2017-10-25T08:23:06.199Z,14.87
2017-10-25T08:25:33.155Z,13.80
2017-10-25T08:27:59.370Z,14.10
2017-10-25T08:30:26.333Z,14.53
2017-10-25T08:32:52.585Z,13.13
2017-10-25T08:35:18.790Z,15.60
2017-10-25T08:37:45.086Z,13.00
2017-10-25T08:40:11.202Z,14.43
2017-10-25T08:42:38.181Z,14.33
2017-10-25T08:45:04.413Z,14.63
2017-10-25T08:47:30.677Z,14.80
2017-10-25T08:49:57.636Z,16.07
2017-10-25T08:52:23.839Z,15.90
2017-10-25T08:54:50.043Z,13.90
2017-10-25T08:57:16.650Z,14.40
2017-10-25T08:59:42.870Z,13.47
2017-10-25T09:02:09.115Z,12.90
2017-10-25T09:04:35.333Z,10.83
2017-10-25T09:07:01.554Z,10.27
2017-10-25T09:09:28.769Z,12.70
2017-10-25T09:11:55.021Z,11.67
2017-10-25T09:14:22.101Z,10.50
2017-10-25T09:16:48.362Z,10.83
2017-10-25T09:19:14.610Z,11.60
2017-10-25T09:21:40.809Z,11.50
2017-10-25T09:24:06.995Z,9.33
2017-10-25T09:26:33.185Z,9.50
2017-10-25T09:28:59.391Z,10.23
2017-10-25T09:31:25.576Z,9.30
2017-10-25T09:33:51.795Z,9.80
2017-10-25T09:36:17.959Z,9.63
2017-10-25T09:38:44.525Z,9.73
2017-10-25T09:41:10.684Z,7.77
2017-10-25T09:43:36.841Z,9.00
2017-10-25T09:46:03.080Z,10.10
2017-10-25T09:48:30.134Z,9.30
2017-10-25T09:50:56.348Z,9.60
2017-10-25T09:53:22.541Z,8.37
2017-10-25T09:55:48.760Z,7.97
2017-10-25T09:58:14.942Z,7.67
2017-10-25T10:00:41.159Z,8.43
2017-10-25T10:03:07.410Z,7.30
2017-10-25T10:05:33.633Z,6.90
2017-10-25T10:07:59.826Z,7.07
2017-10-25T10:10:26.758Z,7.87
2017-10-25T10:12:52.962Z,7.13
2017-10-25T10:15:20.028Z,6.50
2017-10-25T10:17:46.317Z,6.80
2017-10-25T10:20:12.491Z,5.77
2017-10-25T10:22:38.707Z,6.23
2017-10-25T10:25:04.924Z,5.70
2017-10-25T10:27:31.152Z,5.40
2017-10-25T10:29:57.472Z,4.30
2017-10-25T10:32:23.749Z,4.50
2017-10-25T10:34:50.704Z,3.20
2017-10-25T10:37:17.302Z,4.07
2017-10-25T10:39:43.548Z,4.57
2017-10-25T10:42:09.753Z,3.50
2017-10-25T10:44:35.960Z,4.00
2017-10-25T10:47:02.181Z,3.20
2017-10-25T10:49:28.421Z,3.80
2017-10-25T10:51:55.382Z,3.67
2017-10-25T10:54:21.562Z,3.10
2017-10-25T10:56:47.751Z,2.73
2017-10-25T10:59:14.315Z,2.60
2017-10-25T11:01:40.589Z,2.30
2017-10-25T11:04:06.830Z,2.90
2017-10-25T11:06:33.050Z,3.20
2017-10-25T11:08:59.282Z,2.70
2017-10-25T11:11:25.535Z,2.57
2017-10-25T11:13:51.761Z,2.37
2017-10-25T11:16:17.982Z,2.33
2017-10-25T11:18:44.936Z,2.70
2017-10-25T11:21:11.153Z,3.00
2017-10-25T11:23:37.326Z,2.70
2017-10-25T11:26:03.505Z,2.60
2017-10-25T11:28:29.710Z,3.37
2017-10-25T11:30:58.001Z,3.07
2017-10-25T11:33:24.231Z,2.23
2017-10-25T11:35:51.248Z,2.33
2017-10-25T11:38:17.467Z,1.77
2017-10-25T11:40:44.328Z,2.10
2017-10-25T11:43:10.530Z,1.83
2017-10-25T11:45:36.760Z,1.93
2017-10-25T11:48:03.012Z,1.97
2017-10-25T11:50:29.604Z,1.50
2017-10-25T11:52:55.808Z,1.60
2017-10-25T11:55:25.039Z,1.30
2017-10-25T11:57:51.291Z,1.20
2017-10-25T12:00:17.455Z,1.23
2017-10-25T12:02:43.722Z,1.70
2017-10-25T12:05:09.938Z,1.27
2017-10-25T12:07:36.106Z,1.43
2017-10-25T12:10:02.372Z,1.47
2017-10-25T12:12:29.678Z,1.60
2017-10-25T12:14:55.862Z,1.70
2017-10-25T12:17:22.035Z,1.13
2017-10-25T12:19:48.239Z,1.50
2017-10-25T12:22:14.417Z,1.00
2017-10-25T12:24:41.418Z,1.20
2017-10-25T12:27:07.973Z,1.23
2017-10-25T12:29:34.131Z,1.10
2017-10-25T12:32:00.904Z,0.70
2017-10-25T12:34:27.094Z,1.07
2017-10-25T12:36:53.295Z,1.10
2017-10-25T12:39:19.637Z,1.30
2017-10-25T12:41:46.030Z,0.90
2017-10-25T12:44:12.275Z,1.00
2017-10-25T12:46:39.205Z,1.03
2017-10-25T12:49:05.480Z,1.73
2017-10-25T12:51:31.723Z,1.37
2017-10-25T12:53:57.939Z,1.20
2017-10-25T12:56:24.158Z,1.20
2017-10-25T12:58:52.195Z,2.00
2017-10-25T13:01:18.377Z,1.30
2017-10-25T13:03:45.595Z,1.30
2017-10-25T13:06:11.804Z,1.50
2017-10-25T13:08:38.024Z,1.83
2017-10-25T13:11:24.050Z,1.20
2017-10-25T13:14:04.170Z,1.70
2017-10-25T13:16:35.416Z,1.20
2017-10-25T13:19:01.615Z,1.17
2017-10-25T13:21:27.887Z,1.37
2017-10-25T13:23:54.443Z,1.80
2017-10-25T13:26:21.371Z,1.47
2017-10-25T13:28:47.625Z,2.40
2017-10-25T13:31:13.806Z,2.03
2017-10-25T13:33:40.002Z,1.90
2017-10-25T13:36:06.924Z,1.60
2017-10-25T13:38:33.950Z,1.43
2017-10-25T13:41:00.194Z,1.53
2017-10-25T13:43:26.373Z,2.10
2017-10-25T13:45:53.300Z,2.10
2017-10-25T13:48:19.496Z,2.03
2017-10-25T13:50:45.800Z,1.90
2017-10-25T13:53:11.987Z,1.90
2017-10-25T13:55:39.010Z,1.73
2017-10-25T13:58:05.249Z,1.80
2017-10-25T14:00:31.501Z,2.00
2017-10-25T14:02:57.853Z,1.80
2017-10-25T14:05:24.805Z,2.83
2017-10-25T14:07:50.985Z,2.40
2017-10-25T14:10:17.163Z,1.60
2017-10-25T14:12:48.158Z,2.13
2017-10-25T14:15:14.856Z,2.17
2017-10-25T14:17:41.314Z,2.00
2017-10-25T14:20:07.824Z,3.20
2017-10-25T14:22:35.647Z,4.87
2017-10-25T14:25:01.927Z,2.90
2017-10-25T14:27:42.372Z,2.60
2017-10-25T14:30:08.560Z,3.10
2017-10-25T14:32:35.109Z,2.87
2017-10-25T14:35:03.374Z,2.10
2017-10-25T14:37:31.398Z,3.97
2017-10-25T14:39:57.639Z,2.20
2017-10-25T14:42:24.677Z,2.47
2017-10-25T14:44:50.944Z,2.20
2017-10-25T14:47:17.142Z,2.17
2017-10-25T14:49:43.745Z,2.20
2017-10-25T14:52:09.942Z,2.40
2017-10-25T14:54:37.069Z,2.90
2017-10-25T14:57:03.752Z,2.23
2017-10-25T14:59:30.325Z,2.30
2017-10-25T15:01:57.063Z,2.57
2017-10-25T15:04:24.840Z,2.70
2017-10-25T15:06:51.751Z,2.80
2017-10-25T15:09:18.676Z,2.43
2017-10-25T15:11:44.962Z,2.57
2017-10-25T15:14:11.103Z,2.03
2017-10-25T15:16:38.881Z,3.30
2017-10-25T15:19:05.102Z,2.97
2017-10-25T15:21:31.675Z,2.43
2017-10-25T15:23:57.973Z,3.90
2017-10-25T15:26:25.483Z,3.60
2017-10-25T15:28:52.081Z,5.00
2017-10-25T15:31:18.284Z,2.60
2017-10-25T15:33:44.492Z,2.90
2017-10-25T15:36:11.081Z,2.47
2017-10-25T15:38:37.644Z,2.87
2017-10-25T15:41:04.914Z,2.90
2017-10-25T15:43:31.116Z,3.87
2017-10-25T15:45:57.349Z,3.30
2017-10-25T15:48:23.537Z,3.00
2017-10-25T15:50:50.162Z,2.40
2017-10-25T15:53:16.353Z,3.03
2017-10-25T15:55:42.579Z,2.90
2017-10-25T15:58:09.210Z,3.73
2017-10-25T16:00:35.413Z,3.40
2017-10-25T16:03:02.739Z,3.90
2017-10-25T16:05:29.151Z,2.70
2017-10-25T16:07:55.732Z,2.70
2017-10-25T16:10:22.803Z,3.10
2017-10-25T16:12:49.023Z,2.53
2017-10-25T16:15:15.251Z,2.83
2017-10-25T16:17:41.453Z,2.77
2017-10-25T16:20:07.710Z,3.03
2017-10-25T16:22:34.234Z,2.60
2017-10-25T16:25:00.452Z,4.00
2017-10-25T16:27:27.083Z,3.40
2017-10-25T16:29:53.267Z,3.97
2017-10-25T16:32:19.449Z,3.50
2017-10-25T16:34:45.702Z,2.50
2017-10-25T16:37:11.902Z,4.70
2017-10-25T16:39:38.938Z,3.47
2017-10-25T16:42:05.288Z,4.87
2017-10-25T16:44:31.538Z,3.47
2017-10-25T16:46:57.733Z,4.20
2017-10-25T16:49:23.971Z,3.67
2017-10-25T16:51:50.202Z,3.33
2017-10-25T16:54:16.495Z,3.70
2017-10-25T16:56:42.665Z,3.50
2017-10-25T16:59:08.882Z,3.97
2017-10-25T17:01:35.111Z,3.83
2017-10-25T17:04:01.810Z,4.13
2017-10-25T17:06:28.752Z,3.90
2017-10-25T17:08:54.974Z,3.87
2017-10-25T17:11:21.935Z,3.80
2017-10-25T17:13:48.090Z,3.43
2017-10-25T17:16:14.334Z,3.30
2017-10-25T17:18:40.925Z,4.40
2017-10-25T17:21:07.135Z,3.50
2017-10-25T17:23:33.348Z,3.33
2017-10-25T17:25:59.561Z,4.00
2017-10-25T17:28:26.170Z,5.03
2017-10-25T17:30:52.383Z,3.87
2017-10-25T17:33:18.671Z,4.73
2017-10-25T17:35:44.931Z,4.90
2017-10-25T17:38:12.159Z,5.43
2017-10-25T17:40:38.497Z,7.20
2017-10-25T17:43:07.715Z,4.77
2017-10-25T17:45:34.301Z,4.80
2017-10-25T17:48:00.531Z,4.60
2017-10-25T17:50:26.770Z,4.37
2017-10-25T17:52:53.551Z,4.33
2017-10-25T17:55:19.877Z,5.20
2017-10-25T17:57:46.060Z,4.93
2017-10-25T18:00:12.312Z,5.10
2017-10-25T18:02:38.523Z,4.57
2017-10-25T18:05:04.881Z,4.37
2017-10-25T18:07:34.690Z,4.93
2017-10-25T18:10:01.266Z,5.00
2017-10-25T18:12:27.460Z,5.83
2017-10-25T18:14:53.782Z,5.87
2017-10-25T18:17:19.983Z,5.57
2017-10-25T18:19:46.555Z,6.60
2017-10-25T18:22:22.912Z,5.53
2017-10-25T18:24:49.786Z,6.57
2017-10-25T18:27:18.782Z,7.00
2017-10-25T18:29:45.123Z,6.47
2017-10-25T18:32:11.321Z,7.10
2017-10-25T18:34:38.843Z,6.20
2017-10-25T18:37:05.059Z,5.50
2017-10-25T18:39:31.321Z,6.60
2017-10-25T18:41:57.685Z,5.73
2017-10-25T18:44:23.899Z,5.10
2017-10-25T18:46:50.114Z,5.00
2017-10-25T18:49:16.329Z,5.63
2017-10-25T18:51:42.574Z,7.13
2017-10-25T18:54:08.815Z,7.50
2017-10-25T18:56:35.017Z,6.80
2017-10-25T18:59:01.281Z,6.50
2017-10-25T19:01:27.498Z,6.90
2017-10-25T19:03:54.109Z,6.23
2017-10-25T19:06:20.320Z,7.87
2017-10-25T19:08:46.534Z,6.87
2017-10-25T19:11:12.752Z,6.70
2017-10-25T19:13:40.006Z,7.20
2017-10-25T19:16:06.285Z,6.10
2017-10-25T19:18:32.519Z,4.90
2017-10-25T19:20:59.215Z,5.40
2017-10-25T19:23:26.744Z,4.97
2017-10-25T19:25:52.944Z,5.33
2017-10-25T19:28:19.172Z,4.87
2017-10-25T19:30:45.416Z,3.30
2017-10-25T19:33:12.095Z,4.50
2017-10-25T19:35:40.057Z,4.00
2017-10-25T19:38:07.259Z,4.53
2017-10-25T19:40:33.683Z,4.90
2017-10-25T19:43:02.407Z,5.10
2017-10-25T19:45:41.806Z,3.90
2017-10-25T19:48:08.258Z,4.23
2017-10-25T19:50:34.906Z,4.83
2017-10-25T19:53:04.028Z,5.27
2017-10-25T19:55:31.955Z,6.40
2017-10-25T19:58:03.995Z,5.07
2017-10-25T20:00:30.251Z,5.43
2017-10-25T20:02:56.496Z,3.73
2017-10-25T20:05:22.804Z,6.30
2017-10-25T20:07:49.105Z,5.37
2017-10-25T20:10:16.122Z,6.63
2017-10-25T20:12:42.726Z,7.93
2017-10-25T20:15:08.996Z,11.20
2017-10-25T20:17:36.151Z,10.23
2017-10-25T20:20:02.426Z,8.43
2017-10-25T20:22:28.611Z,8.10
2017-10-25T20:24:55.671Z,8.10
2017-10-25T20:27:22.236Z,7.93
2017-10-25T20:29:48.420Z,6.83
2017-10-25T20:32:14.695Z,7.70
2017-10-25T20:34:44.482Z,7.97
2017-10-25T20:37:13.989Z,10.57
2017-10-25T20:39:40.856Z,8.57
2017-10-25T20:42:07.307Z,7.77
2017-10-25T20:44:33.553Z,8.17
2017-10-25T20:47:00.443Z,8.80
2017-10-25T20:49:27.426Z,8.03
2017-10-25T20:51:53.877Z,8.73
2017-10-25T20:54:21.103Z,8.37
2017-10-25T20:56:47.531Z,8.73
2017-10-25T20:59:13.738Z,7.53
2017-10-25T21:01:39.957Z,7.50
2017-10-25T21:04:06.909Z,7.73
2017-10-25T21:06:33.069Z,7.00
2017-10-25T21:08:59.260Z,6.90
2017-10-25T21:11:25.469Z,6.60
2017-10-25T21:13:51.678Z,6.60
2017-10-25T21:16:17.901Z,6.10
2017-10-25T21:18:44.147Z,6.60
2017-10-25T21:21:10.351Z,6.17
2017-10-25T21:23:36.533Z,6.70
2017-10-25T21:26:02.794Z,7.13
2017-10-25T21:28:28.999Z,7.00
2017-10-25T21:30:55.268Z,5.83
2017-10-25T21:33:22.279Z,6.07
2017-10-25T21:35:48.483Z,6.27
2017-10-25T21:38:14.700Z,6.00
2017-10-25T21:40:40.909Z,6.70
2017-10-25T21:43:07.834Z,5.40
2017-10-25T21:45:34.035Z,6.83
2017-10-25T21:48:00.291Z,5.80
2017-10-25T21:50:26.560Z,6.70
2017-10-25T21:52:52.751Z,6.17
2017-10-25T21:55:18.959Z,5.60
2017-10-25T21:57:45.155Z,5.50
2017-10-25T22:00:11.378Z,5.70
2017-10-25T22:02:37.597Z,5.70
2017-10-25T22:05:03.793Z,5.30
2017-10-25T22:07:30.036Z,5.07
2017-10-25T22:09:56.653Z,5.53
2017-10-25T22:12:22.831Z,4.90
2017-10-25T22:14:49.036Z,5.70
2017-10-25T22:17:15.319Z,5.30
2017-10-25T22:19:42.431Z,5.57
2017-10-25T22:22:09.395Z,5.63
2017-10-25T22:24:35.615Z,4.93
2017-10-25T22:27:02.228Z,4.83
2017-10-25T22:29:29.164Z,4.80
2017-10-25T22:31:55.331Z,4.93
2017-10-25T22:34:21.910Z,4.50
2017-10-25T22:36:48.118Z,5.53
2017-10-25T22:39:15.283Z,6.30
2017-10-25T22:41:41.470Z,6.40
2017-10-25T22:44:07.735Z,5.60
2017-10-25T22:46:33.942Z,5.90
2017-10-25T22:49:01.110Z,5.70
2017-10-25T22:51:27.718Z,5.87
2017-10-25T22:53:53.895Z,5.33
2017-10-25T22:56:20.055Z,5.37
2017-10-25T22:58:46.215Z,5.40
2017-10-25T23:01:12.448Z,5.90
2017-10-25T23:03:38.688Z,4.90
2017-10-25T23:06:04.884Z,5.93
2017-10-25T23:08:31.094Z,5.70
2017-10-25T23:10:57.307Z,5.90
2017-10-25T23:13:23.492Z,5.97
2017-10-25T23:15:49.635Z,5.40
2017-10-25T23:18:16.616Z,5.60
2017-10-25T23:20:42.942Z,5.60
2017-10-25T23:23:09.137Z,5.80
2017-10-25T23:25:35.268Z,4.87
2017-10-25T23:28:01.447Z,5.67
2017-10-25T23:30:28.603Z,6.47
2017-10-25T23:32:54.781Z,6.20
2017-10-25T23:35:21.000Z,6.30
2017-10-25T23:37:47.175Z,6.30
2017-10-25T23:40:13.335Z,5.57
2017-10-25T23:42:39.535Z,6.00
2017-10-25T23:45:06.113Z,5.80
2017-10-25T23:47:32.328Z,5.63
2017-10-25T23:49:58.556Z,6.33
2017-10-25T23:52:24.795Z,6.23
2017-10-25T23:54:50.971Z,6.87
2017-10-25T23:57:17.570Z,5.43
2017-10-25T23:59:44.492Z,5.80
